Aviation Digital Data Service (ADDS)

Output produced by METARs form (0218 UTC 22 April 2019)
found at http://www.aviationweather.gov/metar/data/
 
METAR text: LLBG 220150Z 14006KT 9999 FEW048 12/05 Q1016 NOSIG
Conditions at: LLBG (BEN-GURION(CIV/M, IL) observed 0150 UTC 22 April 2019
Temperature: 12.0°C (54°F)
Dewpoint: 5.0°C (41°F) [RH = 62%]
Pressure (altimeter): 30.00 inches Hg (1016.0 mb)
Winds: from the SE (140 degrees) at 7 MPH (6 knots; 3.1 m/s)
Visibility: 6 or more miles (10+ km)
Ceiling: at least 12,000 feet AGL
Clouds: few clouds at 4800 feet AGL
Weather: no significant weather observed at this time

METAR text: LLBG 220120Z 14006KT 9999 SCT044 12/06 Q1016 NOSIG
Conditions at: LLBG (BEN-GURION(CIV/M, IL) observed 0120 UTC 22 April 2019
Temperature: 12.0°C (54°F)
Dewpoint: 6.0°C (43°F) [RH = 67%]
Pressure (altimeter): 30.00 inches Hg (1016.0 mb)
Winds: from the SE (140 degrees) at 7 MPH (6 knots; 3.1 m/s)
Visibility: 6 or more miles (10+ km)
Ceiling: at least 12,000 feet AGL
Clouds: scattered clouds at 4400 feet AGL
Weather: no significant weather observed at this time

METAR text: LLBG 220050Z 13006KT 9999 FEW045 12/06 Q1016 NOSIG RMK BKN059
Conditions at: LLBG (BEN-GURION(CIV/M, IL) observed 0050 UTC 22 April 2019
Temperature: 12.0°C (54°F)
Dewpoint: 6.0°C (43°F) [RH = 67%]
Pressure (altimeter): 30.00 inches Hg (1016.0 mb)
Winds: from the SE (130 degrees) at 7 MPH (6 knots; 3.1 m/s)
Visibility: 6 or more miles (10+ km)
Ceiling: at least 12,000 feet AGL
Clouds: few clouds at 4500 feet AGL
Weather: no significant weather observed at this time

METAR text: LLBG 220020Z 13006KT 9999 FEW044 13/05 Q1016 NOSIG RMK BKN055
Conditions at: LLBG (BEN-GURION(CIV/M, IL) observed 0020 UTC 22 April 2019
Temperature: 13.0°C (55°F)
Dewpoint: 5.0°C (41°F) [RH = 58%]
Pressure (altimeter): 30.00 inches Hg (1016.0 mb)
Winds: from the SE (130 degrees) at 7 MPH (6 knots; 3.1 m/s)
Visibility: 6 or more miles (10+ km)
Ceiling: at least 12,000 feet AGL
Clouds: few clouds at 4400 feet AGL
Weather: no significant weather observed at this time

METAR text: LLBG 212350Z 12004KT 9999 SCT040 SCT050 13/06 Q1016 NOSIG
Conditions at: LLBG (BEN-GURION(CIV/M, IL) observed 2350 UTC 21 April 2019
Temperature: 13.0°C (55°F)
Dewpoint: 6.0°C (43°F) [RH = 62%]
Pressure (altimeter): 30.00 inches Hg (1016.0 mb)
Winds: from the ESE (120 degrees) at 5 MPH (4 knots; 2.1 m/s)
Visibility: 6 or more miles (10+ km)
Ceiling: at least 12,000 feet AGL
Clouds: scattered clouds at 4000 feet AGL
scattered clouds at 5000 feet AGL
Weather: no significant weather observed at this time

METAR text: LLBG 212320Z 13004KT 9999 SCT040 13/05 Q1016 NOSIG
Conditions at: LLBG (BEN-GURION(CIV/M, IL) observed 2320 UTC 21 April 2019
Temperature: 13.0°C (55°F)
Dewpoint: 5.0°C (41°F) [RH = 58%]
Pressure (altimeter): 30.00 inches Hg (1016.0 mb)
Winds: from the SE (130 degrees) at 5 MPH (4 knots; 2.1 m/s)
Visibility: 6 or more miles (10+ km)
Ceiling: at least 12,000 feet AGL
Clouds: scattered clouds at 4000 feet AGL
Weather: no significant weather observed at this time

METAR text: LLBG 212250Z 23005KT 9999 SCT040 13/05 Q1016 NOSIG
Conditions at: LLBG (BEN-GURION(CIV/M, IL) observed 2250 UTC 21 April 2019
Temperature: 13.0°C (55°F)
Dewpoint: 5.0°C (41°F) [RH = 58%]
Pressure (altimeter): 30.00 inches Hg (1016.0 mb)
Winds: from the SW (230 degrees) at 6 MPH (5 knots; 2.6 m/s)
Visibility: 6 or more miles (10+ km)
Ceiling: at least 12,000 feet AGL
Clouds: scattered clouds at 4000 feet AGL
Weather: no significant weather observed at this time

METAR text: LLBG 212220Z 26006KT 9999 SCT040 14/05 Q1016 NOSIG
Conditions at: LLBG (BEN-GURION(CIV/M, IL) observed 2220 UTC 21 April 2019
Temperature: 14.0°C (57°F)
Dewpoint: 5.0°C (41°F) [RH = 55%]
Pressure (altimeter): 30.00 inches Hg (1016.0 mb)
Winds: from the W (260 degrees) at 7 MPH (6 knots; 3.1 m/s)
Visibility: 6 or more miles (10+ km)
Ceiling: at least 12,000 feet AGL
Clouds: scattered clouds at 4000 feet AGL
Weather: no significant weather observed at this time

METAR text: LLBG 212150Z 27007KT 9999 SCT040 14/05 Q1017 NOSIG
Conditions at: LLBG (BEN-GURION(CIV/M, IL) observed 2150 UTC 21 April 2019
Temperature: 14.0°C (57°F)
Dewpoint: 5.0°C (41°F) [RH = 55%]
Pressure (altimeter): 30.03 inches Hg (1017.0 mb)
Winds: from the W (270 degrees) at 8 MPH (7 knots; 3.6 m/s)
Visibility: 6 or more miles (10+ km)
Ceiling: at least 12,000 feet AGL
Clouds: scattered clouds at 4000 feet AGL
Weather: no significant weather observed at this time

METAR text: LLBG 212120Z 27009KT 9999 SCT045 14/05 Q1017 NOSIG
Conditions at: LLBG (BEN-GURION(CIV/M, IL) observed 2120 UTC 21 April 2019
Temperature: 14.0°C (57°F)
Dewpoint: 5.0°C (41°F) [RH = 55%]
Pressure (altimeter): 30.03 inches Hg (1017.0 mb)
Winds: from the W (270 degrees) at 10 MPH (9 knots; 4.6 m/s)
Visibility: 6 or more miles (10+ km)
Ceiling: at least 12,000 feet AGL
Clouds: scattered clouds at 4500 feet AGL
Weather: no significant weather observed at this time

METAR text: LLBG 212050Z 28009KT 9999 SCT045 14/04 Q1017 NOSIG
Conditions at: LLBG (BEN-GURION(CIV/M, IL) observed 2050 UTC 21 April 2019
Temperature: 14.0°C (57°F)
Dewpoint: 4.0°C (39°F) [RH = 51%]
Pressure (altimeter): 30.03 inches Hg (1017.0 mb)
Winds: from the W (280 degrees) at 10 MPH (9 knots; 4.6 m/s)
Visibility: 6 or more miles (10+ km)
Ceiling: at least 12,000 feet AGL
Clouds: scattered clouds at 4500 feet AGL
Weather: no significant weather observed at this time

METAR text: LLBG 212020Z 28010KT 9999 FEW040 SCT050 14/04 Q1017 NOSIG
Conditions at: LLBG (BEN-GURION(CIV/M, IL) observed 2020 UTC 21 April 2019
Temperature: 14.0°C (57°F)
Dewpoint: 4.0°C (39°F) [RH = 51%]
Pressure (altimeter): 30.03 inches Hg (1017.0 mb)
Winds: from the W (280 degrees) at 12 MPH (10 knots; 5.1 m/s)
Visibility: 6 or more miles (10+ km)
Ceiling: at least 12,000 feet AGL
Clouds: few clouds at 4000 feet AGL
scattered clouds at 5000 feet AGL
Weather: no significant weather observed at this time

METAR text: LLBG 211950Z 29008KT 9999 SCT045 14/04 Q1017 NOSIG
Conditions at: LLBG (BEN-GURION(CIV/M, IL) observed 1950 UTC 21 April 2019
Temperature: 14.0°C (57°F)
Dewpoint: 4.0°C (39°F) [RH = 51%]
Pressure (altimeter): 30.03 inches Hg (1017.0 mb)
Winds: from the WNW (290 degrees) at 9 MPH (8 knots; 4.1 m/s)
Visibility: 6 or more miles (10+ km)
Ceiling: at least 12,000 feet AGL
Clouds: scattered clouds at 4500 feet AGL
Weather: no significant weather observed at this time

METAR text: LLBG 211920Z 28012KT 9999 SCT046 14/04 Q1017 NOSIG
Conditions at: LLBG (BEN-GURION(CIV/M, IL) observed 1920 UTC 21 April 2019
Temperature: 14.0°C (57°F)
Dewpoint: 4.0°C (39°F) [RH = 51%]
Pressure (altimeter): 30.03 inches Hg (1017.0 mb)
Winds: from the W (280 degrees) at 14 MPH (12 knots; 6.2 m/s)
Visibility: 6 or more miles (10+ km)
Ceiling: at least 12,000 feet AGL
Clouds: scattered clouds at 4600 feet AGL
Weather: no significant weather observed at this time

METAR text: LLBG 211850Z 28014KT 9999 SCT046 15/04 Q1017 NOSIG
Conditions at: LLBG (BEN-GURION(CIV/M, IL) observed 1850 UTC 21 April 2019
Temperature: 15.0°C (59°F)
Dewpoint: 4.0°C (39°F) [RH = 48%]
Pressure (altimeter): 30.03 inches Hg (1017.0 mb)
Winds: from the W (280 degrees) at 16 MPH (14 knots; 7.2 m/s)
Visibility: 6 or more miles (10+ km)
Ceiling: at least 12,000 feet AGL
Clouds: scattered clouds at 4600 feet AGL
Weather: no significant weather observed at this time

METAR text: LLBG 211820Z 28013KT 9999 SCT048 15/04 Q1017 NOSIG
Conditions at: LLBG (BEN-GURION(CIV/M, IL) observed 1820 UTC 21 April 2019
Temperature: 15.0°C (59°F)
Dewpoint: 4.0°C (39°F) [RH = 48%]
Pressure (altimeter): 30.03 inches Hg (1017.0 mb)
Winds: from the W (280 degrees) at 15 MPH (13 knots; 6.7 m/s)
Visibility: 6 or more miles (10+ km)
Ceiling: at least 12,000 feet AGL
Clouds: scattered clouds at 4800 feet AGL
Weather: no significant weather observed at this time

METAR text: LLBG 211750Z 28012KT 9999 SCT045 14/04 Q1017 NOSIG
Conditions at: LLBG (BEN-GURION(CIV/M, IL) observed 1750 UTC 21 April 2019
Temperature: 14.0°C (57°F)
Dewpoint: 4.0°C (39°F) [RH = 51%]
Pressure (altimeter): 30.03 inches Hg (1017.0 mb)
Winds: from the W (280 degrees) at 14 MPH (12 knots; 6.2 m/s)
Visibility: 6 or more miles (10+ km)
Ceiling: at least 12,000 feet AGL
Clouds: scattered clouds at 4500 feet AGL
Weather: no significant weather observed at this time

METAR text: LLBG 211720Z 29012KT 9999 SCT045 15/04 Q1016 NOSIG
Conditions at: LLBG (BEN-GURION(CIV/M, IL) observed 1720 UTC 21 April 2019
Temperature: 15.0°C (59°F)
Dewpoint: 4.0°C (39°F) [RH = 48%]
Pressure (altimeter): 30.00 inches Hg (1016.0 mb)
Winds: from the WNW (290 degrees) at 14 MPH (12 knots; 6.2 m/s)
Visibility: 6 or more miles (10+ km)
Ceiling: at least 12,000 feet AGL
Clouds: scattered clouds at 4500 feet AGL
Weather: no significant weather observed at this time

METAR text: LLBG 211650Z 29015KT 9999 SCT045 15/03 Q1016 NOSIG
Conditions at: LLBG (BEN-GURION(CIV/M, IL) observed 1650 UTC 21 April 2019
Temperature: 15.0°C (59°F)
Dewpoint: 3.0°C (37°F) [RH = 44%]
Pressure (altimeter): 30.00 inches Hg (1016.0 mb)
Winds: from the WNW (290 degrees) at 17 MPH (15 knots; 7.7 m/s)
Visibility: 6 or more miles (10+ km)
Ceiling: at least 12,000 feet AGL
Clouds: scattered clouds at 4500 feet AGL
Weather: no significant weather observed at this time

METAR text: LLBG 211620Z 29017KT 9999 SCT045 15/04 Q1016 NOSIG
Conditions at: LLBG (BEN-GURION(CIV/M, IL) observed 1620 UTC 21 April 2019
Temperature: 15.0°C (59°F)
Dewpoint: 4.0°C (39°F) [RH = 48%]
Pressure (altimeter): 30.00 inches Hg (1016.0 mb)
Winds: from the WNW (290 degrees) at 20 MPH (17 knots; 8.7 m/s)
Visibility: 6 or more miles (10+ km)
Ceiling: at least 12,000 feet AGL
Clouds: scattered clouds at 4500 feet AGL
Weather: no significant weather observed at this time

METAR text: LLBG 211550Z 29017KT 9999 SCT045 15/03 Q1016 NOSIG
Conditions at: LLBG (BEN-GURION(CIV/M, IL) observed 1550 UTC 21 April 2019
Temperature: 15.0°C (59°F)
Dewpoint: 3.0°C (37°F) [RH = 44%]
Pressure (altimeter): 30.00 inches Hg (1016.0 mb)
Winds: from the WNW (290 degrees) at 20 MPH (17 knots; 8.7 m/s)
Visibility: 6 or more miles (10+ km)
Ceiling: at least 12,000 feet AGL
Clouds: scattered clouds at 4500 feet AGL
Weather: no significant weather observed at this time

METAR text: LLBG 211520Z 30019KT 9999 SCT048 16/04 Q1016 BECMG 30014KT
Conditions at: LLBG (BEN-GURION(CIV/M, IL) observed 1520 UTC 21 April 2019
Temperature: 16.0°C (61°F)
Dewpoint: 4.0°C (39°F) [RH = 45%]
Pressure (altimeter): 30.00 inches Hg (1016.0 mb)
Winds: from the WNW (300 degrees) at 22 MPH (19 knots; 9.8 m/s)
Visibility: 6 or more miles (10+ km)
Ceiling: at least 12,000 feet AGL
Clouds: scattered clouds at 4800 feet AGL
Weather: no significant weather observed at this time

METAR text: LLBG 211450Z 30020KT 9999 SCT050 16/04 Q1016 BECMG 30014KT
Conditions at: LLBG (BEN-GURION(CIV/M, IL) observed 1450 UTC 21 April 2019
Temperature: 16.0°C (61°F)
Dewpoint: 4.0°C (39°F) [RH = 45%]
Pressure (altimeter): 30.00 inches Hg (1016.0 mb)
Winds: from the WNW (300 degrees) at 23 MPH (20 knots; 10.3 m/s)
Visibility: 6 or more miles (10+ km)
Ceiling: at least 12,000 feet AGL
Clouds: scattered clouds at 5000 feet AGL
Weather: no significant weather observed at this time

METAR text: LLBG 211420Z 30022KT 9999 SCT050 16/04 Q1015 BECMG 30015KT
Conditions at: LLBG (BEN-GURION(CIV/M, IL) observed 1420 UTC 21 April 2019
Temperature: 16.0°C (61°F)
Dewpoint: 4.0°C (39°F) [RH = 45%]
Pressure (altimeter): 29.97 inches Hg (1015.0 mb)
Winds: from the WNW (300 degrees) at 25 MPH (22 knots; 11.3 m/s)
Visibility: 6 or more miles (10+ km)
Ceiling: at least 12,000 feet AGL
Clouds: scattered clouds at 5000 feet AGL
Weather: no significant weather observed at this time

METAR text: LLBG 211350Z 29023KT 9999 SCT050 16/04 Q1015 BECMG 30015KT
Conditions at: LLBG (BEN-GURION(CIV/M, IL) observed 1350 UTC 21 April 2019
Temperature: 16.0°C (61°F)
Dewpoint: 4.0°C (39°F) [RH = 45%]
Pressure (altimeter): 29.97 inches Hg (1015.0 mb)
Winds: from the WNW (290 degrees) at 26 MPH (23 knots; 11.8 m/s)
Visibility: 6 or more miles (10+ km)
Ceiling: at least 12,000 feet AGL
Clouds: scattered clouds at 5000 feet AGL
Weather: no significant weather observed at this time

METAR text: LLBG 211320Z 29023KT 9999 SCT050 17/04 Q1015 NOSIG
Conditions at: LLBG (BEN-GURION(CIV/M, IL) observed 1320 UTC 21 April 2019
Temperature: 17.0°C (63°F)
Dewpoint: 4.0°C (39°F) [RH = 42%]
Pressure (altimeter): 29.97 inches Hg (1015.0 mb)
Winds: from the WNW (290 degrees) at 26 MPH (23 knots; 11.8 m/s)
Visibility: 6 or more miles (10+ km)
Ceiling: at least 12,000 feet AGL
Clouds: scattered clouds at 5000 feet AGL
Weather: no significant weather observed at this time

METAR text: LLBG 211250Z 29026KT 9999 SCT050 17/02 Q1015 NOSIG
Conditions at: LLBG (BEN-GURION(CIV/M, IL) observed 1250 UTC 21 April 2019
Temperature: 17.0°C (63°F)
Dewpoint: 2.0°C (36°F) [RH = 36%]
Pressure (altimeter): 29.97 inches Hg (1015.0 mb)
Winds: from the WNW (290 degrees) at 30 MPH (26 knots; 13.4 m/s)
Visibility: 6 or more miles (10+ km)
Ceiling: at least 12,000 feet AGL
Clouds: scattered clouds at 5000 feet AGL
Weather: no significant weather observed at this time

METAR text: LLBG 211220Z 30025G36KT 9999 SCT045 18/02 Q1015 NOSIG
Conditions at: LLBG (BEN-GURION(CIV/M, IL) observed 1220 UTC 21 April 2019
Temperature: 18.0°C (64°F)
Dewpoint: 2.0°C (36°F) [RH = 34%]
Pressure (altimeter): 29.97 inches Hg (1015.0 mb)
Winds: from the WNW (300 degrees) at 29 MPH (25 knots; 12.9 m/s)
gusting to 41 MPH (36 knots; 18.5 m/s)
Visibility: 6 or more miles (10+ km)
Ceiling: at least 12,000 feet AGL
Clouds: scattered clouds at 4500 feet AGL
Weather: no significant weather observed at this time

METAR text: LLBG 211150Z 30022KT 9999 SCT042 17/07 Q1015 RERA NOSIG
Conditions at: LLBG (BEN-GURION(CIV/M, IL) observed 1150 UTC 21 April 2019
Temperature: 17.0°C (63°F)
Dewpoint: 7.0°C (45°F) [RH = 52%]
Pressure (altimeter): 29.97 inches Hg (1015.0 mb)
Winds: from the WNW (300 degrees) at 25 MPH (22 knots; 11.3 m/s)
Visibility: 6 or more miles (10+ km)
Ceiling: at least 12,000 feet AGL
Clouds: scattered clouds at 4200 feet AGL
Weather: no significant weather observed at this time

METAR text: LLBG 211120Z 29017KT 9999 FEW040 BKN045 16/06 Q1015 NOSIG
Conditions at: LLBG (BEN-GURION(CIV/M, IL) observed 1120 UTC 21 April 2019
Temperature: 16.0°C (61°F)
Dewpoint: 6.0°C (43°F) [RH = 51%]
Pressure (altimeter): 29.97 inches Hg (1015.0 mb)
Winds: from the WNW (290 degrees) at 20 MPH (17 knots; 8.7 m/s)
Visibility: 6 or more miles (10+ km)
Ceiling: 4500 feet AGL
Clouds: few clouds at 4000 feet AGL
broken clouds at 4500 feet AGL
Weather: no significant weather observed at this time

METAR text: LLBG 211050Z 26018KT 9999 SCT045 17/05 Q1015 NOSIG
Conditions at: LLBG (BEN-GURION(CIV/M, IL) observed 1050 UTC 21 April 2019
Temperature: 17.0°C (63°F)
Dewpoint: 5.0°C (41°F) [RH = 45%]
Pressure (altimeter): 29.97 inches Hg (1015.0 mb)
Winds: from the W (260 degrees) at 21 MPH (18 knots; 9.3 m/s)
Visibility: 6 or more miles (10+ km)
Ceiling: at least 12,000 feet AGL
Clouds: scattered clouds at 4500 feet AGL
Weather: no significant weather observed at this time

METAR text: LLBG 211020Z 30020G31KT 9999 FEW035 SCT050 16/03 Q1015 NOSIG
Conditions at: LLBG (BEN-GURION(CIV/M, IL) observed 1020 UTC 21 April 2019
Temperature: 16.0°C (61°F)
Dewpoint: 3.0°C (37°F) [RH = 42%]
Pressure (altimeter): 29.97 inches Hg (1015.0 mb)
Winds: from the WNW (300 degrees) at 23 MPH (20 knots; 10.3 m/s)
gusting to 36 MPH (31 knots; 15.9 m/s)
Visibility: 6 or more miles (10+ km)
Ceiling: at least 12,000 feet AGL
Clouds: few clouds at 3500 feet AGL
scattered clouds at 5000 feet AGL
Weather: no significant weather observed at this time

METAR text: LLBG 210950Z 32014KT 9999 FEW040 16/06 Q1015 NOSIG
Conditions at: LLBG (BEN-GURION(CIV/M, IL) observed 0950 UTC 21 April 2019
Temperature: 16.0°C (61°F)
Dewpoint: 6.0°C (43°F) [RH = 51%]
Pressure (altimeter): 29.97 inches Hg (1015.0 mb)
Winds: from the NW (320 degrees) at 16 MPH (14 knots; 7.2 m/s)
Visibility: 6 or more miles (10+ km)
Ceiling: at least 12,000 feet AGL
Clouds: few clouds at 4000 feet AGL
Weather: no significant weather observed at this time

METAR text: LLBG 210920Z 34019KT 9999 SCT040 14/06 Q1015 TEMPO 27015KT 7000 TSRA FEW025CB BKN030
Conditions at: LLBG (BEN-GURION(CIV/M, IL) observed 0920 UTC 21 April 2019
Temperature: 14.0°C (57°F)
Dewpoint: 6.0°C (43°F) [RH = 58%]
Pressure (altimeter): 29.97 inches Hg (1015.0 mb)
Winds: from the NNW (340 degrees) at 22 MPH (19 knots; 9.8 m/s)
Visibility: 6 or more miles (10+ km)
Ceiling: at least 12,000 feet AGL
Clouds: scattered clouds at 4000 feet AGL
Weather: no significant weather observed at this time

METAR text: LLBG 210850Z 28016KT 9999 SCT035 BKN040 17/07 Q1014 TEMPO 27024KT 7000 TSRA FEW025CB BKN030
Conditions at: LLBG (BEN-GURION(CIV/M, IL) observed 0850 UTC 21 April 2019
Temperature: 17.0°C (63°F)
Dewpoint: 7.0°C (45°F) [RH = 52%]
Pressure (altimeter): 29.94 inches Hg (1014.0 mb)
Winds: from the W (280 degrees) at 18 MPH (16 knots; 8.2 m/s)
Visibility: 6 or more miles (10+ km)
Ceiling: 4000 feet AGL
Clouds: scattered clouds at 3500 feet AGL
broken clouds at 4000 feet AGL
Weather: no significant weather observed at this time

METAR text: LLBG 210820Z 30015KT 9999 SCT035 16/08 Q1014 TEMPO 27024KT 7000 TSRA FEW025CB BKN030
Conditions at: LLBG (BEN-GURION(CIV/M, IL) observed 0820 UTC 21 April 2019
Temperature: 16.0°C (61°F)
Dewpoint: 8.0°C (46°F) [RH = 59%]
Pressure (altimeter): 29.94 inches Hg (1014.0 mb)
Winds: from the WNW (300 degrees) at 17 MPH (15 knots; 7.7 m/s)
Visibility: 6 or more miles (10+ km)
Ceiling: at least 12,000 feet AGL
Clouds: scattered clouds at 3500 feet AGL
Weather: no significant weather observed at this time

METAR text: LLBG 210750Z 28024KT 9999 SCT035 16/08 Q1014 NOSIG
Conditions at: LLBG (BEN-GURION(CIV/M, IL) observed 0750 UTC 21 April 2019
Temperature: 16.0°C (61°F)
Dewpoint: 8.0°C (46°F) [RH = 59%]
Pressure (altimeter): 29.94 inches Hg (1014.0 mb)
Winds: from the W (280 degrees) at 28 MPH (24 knots; 12.3 m/s)
Visibility: 6 or more miles (10+ km)
Ceiling: at least 12,000 feet AGL
Clouds: scattered clouds at 3500 feet AGL
Weather: no significant weather observed at this time

METAR text: LLBG 210720Z 27020KT 9999 FEW030 SCT035 15/08 Q1014 TEMPO 9000 -RA BKN030
Conditions at: LLBG (BEN-GURION(CIV/M, IL) observed 0720 UTC 21 April 2019
Temperature: 15.0°C (59°F)
Dewpoint: 8.0°C (46°F) [RH = 63%]
Pressure (altimeter): 29.94 inches Hg (1014.0 mb)
Winds: from the W (270 degrees) at 23 MPH (20 knots; 10.3 m/s)
Visibility: 6 or more miles (10+ km)
Ceiling: at least 12,000 feet AGL
Clouds: few clouds at 3000 feet AGL
scattered clouds at 3500 feet AGL
Weather: no significant weather observed at this time

METAR text: LLBG 210650Z 22013KT 9999 FEW025 SCT030 13/10 Q1013 RERA TEMPO 9000 -RA BKN030
Conditions at: LLBG (BEN-GURION(CIV/M, IL) observed 0650 UTC 21 April 2019
Temperature: 13.0°C (55°F)
Dewpoint: 10.0°C (50°F) [RH = 82%]
Pressure (altimeter): 29.91 inches Hg (1013.0 mb)
Winds: from the SW (220 degrees) at 15 MPH (13 knots; 6.7 m/s)
Visibility: 6 or more miles (10+ km)
Ceiling: at least 12,000 feet AGL
Clouds: few clouds at 2500 feet AGL
scattered clouds at 3000 feet AGL
Weather: no significant weather observed at this time

METAR text: LLBG 210620Z 23011KT 9999 SCT030 BKN045 13/07 Q1013 RERA TEMPO 27020KT 7000 RA FEW025TCU BKN030
Conditions at: LLBG (BEN-GURION(CIV/M, IL) observed 0620 UTC 21 April 2019
Temperature: 13.0°C (55°F)
Dewpoint: 7.0°C (45°F) [RH = 67%]
Pressure (altimeter): 29.91 inches Hg (1013.0 mb)
Winds: from the SW (230 degrees) at 13 MPH (11 knots; 5.7 m/s)
Visibility: 6 or more miles (10+ km)
Ceiling: 4500 feet AGL
Clouds: scattered clouds at 3000 feet AGL
broken clouds at 4500 feet AGL
Weather: no significant weather observed at this time

METAR text: LLBG 210550Z 28025G35KT 7000 RA FEW025TCU BKN030 12/07 Q1014 BECMG 28018KT 9000 RA BKN030
Conditions at: LLBG (BEN-GURION(CIV/M, IL) observed 0550 UTC 21 April 2019
Temperature: 12.0°C (54°F)
Dewpoint: 7.0°C (45°F) [RH = 71%]
Pressure (altimeter): 29.94 inches Hg (1014.0 mb)
Winds: from the W (280 degrees) at 29 MPH (25 knots; 12.9 m/s)
gusting to 40 MPH (35 knots; 18.0 m/s)
Visibility: 4 miles ( 7 km)
Ceiling: 3000 feet AGL
Clouds: few clouds at 2500 feet AGL
broken clouds at 3000 feet AGL
Weather: RA  (moderate rain)

METAR text: LLBG 210520Z 24017KT 9999 BKN045 16/05 Q1012 TEMPO 6000 TSRA FEW025CB BKN030
Conditions at: LLBG (BEN-GURION(CIV/M, IL) observed 0520 UTC 21 April 2019
Temperature: 16.0°C (61°F)
Dewpoint: 5.0°C (41°F) [RH = 48%]
Pressure (altimeter): 29.88 inches Hg (1012.0 mb)
Winds: from the WSW (240 degrees) at 20 MPH (17 knots; 8.7 m/s)
Visibility: 6 or more miles (10+ km)
Ceiling: 4500 feet AGL
Clouds: broken clouds at 4500 feet AGL
Weather: no significant weather observed at this time

METAR text: LLBG 210450Z 24015KT 9999 SCT040 16/05 Q1013 NOSIG
Conditions at: LLBG (BEN-GURION(CIV/M, IL) observed 0450 UTC 21 April 2019
Temperature: 16.0°C (61°F)
Dewpoint: 5.0°C (41°F) [RH = 48%]
Pressure (altimeter): 29.91 inches Hg (1013.0 mb)
Winds: from the WSW (240 degrees) at 17 MPH (15 knots; 7.7 m/s)
Visibility: 6 or more miles (10+ km)
Ceiling: at least 12,000 feet AGL
Clouds: scattered clouds at 4000 feet AGL
Weather: no significant weather observed at this time

METAR text: LLBG 210420Z 24013KT 9999 SCT040 16/06 Q1013 NOSIG
Conditions at: LLBG (BEN-GURION(CIV/M, IL) observed 0420 UTC 21 April 2019
Temperature: 16.0°C (61°F)
Dewpoint: 6.0°C (43°F) [RH = 51%]
Pressure (altimeter): 29.91 inches Hg (1013.0 mb)
Winds: from the WSW (240 degrees) at 15 MPH (13 knots; 6.7 m/s)
Visibility: 6 or more miles (10+ km)
Ceiling: at least 12,000 feet AGL
Clouds: scattered clouds at 4000 feet AGL
Weather: no significant weather observed at this time

METAR text: LLBG 210350Z 25013G23KT 9999 BKN040 15/05 Q1013 NOSIG
Conditions at: LLBG (BEN-GURION(CIV/M, IL) observed 0350 UTC 21 April 2019
Temperature: 15.0°C (59°F)
Dewpoint: 5.0°C (41°F) [RH = 51%]
Pressure (altimeter): 29.91 inches Hg (1013.0 mb)
Winds: from the WSW (250 degrees) at 15 MPH (13 knots; 6.7 m/s)
gusting to 26 MPH (23 knots; 11.8 m/s)
Visibility: 6 or more miles (10+ km)
Ceiling: 4000 feet AGL
Clouds: broken clouds at 4000 feet AGL
Weather: no significant weather observed at this time

METAR text: LLBG 210320Z 25013G23KT 9999 SCT035 15/05 Q1013 NOSIG
Conditions at: LLBG (BEN-GURION(CIV/M, IL) observed 0320 UTC 21 April 2019
Temperature: 15.0°C (59°F)
Dewpoint: 5.0°C (41°F) [RH = 51%]
Pressure (altimeter): 29.91 inches Hg (1013.0 mb)
Winds: from the WSW (250 degrees) at 15 MPH (13 knots; 6.7 m/s)
gusting to 26 MPH (23 knots; 11.8 m/s)
Visibility: 6 or more miles (10+ km)
Ceiling: at least 12,000 feet AGL
Clouds: scattered clouds at 3500 feet AGL
Weather: no significant weather observed at this time

METAR text: LLBG 210250Z 26013KT 9999 FEW035 15/06 Q1013 NOSIG
Conditions at: LLBG (BEN-GURION(CIV/M, IL) observed 0250 UTC 21 April 2019
Temperature: 15.0°C (59°F)
Dewpoint: 6.0°C (43°F) [RH = 55%]
Pressure (altimeter): 29.91 inches Hg (1013.0 mb)
Winds: from the W (260 degrees) at 15 MPH (13 knots; 6.7 m/s)
Visibility: 6 or more miles (10+ km)
Ceiling: at least 12,000 feet AGL
Clouds: few clouds at 3500 feet AGL
Weather: no significant weather observed at this time

METAR text: LLBG 210220Z 25015KT 9999 FEW040 15/06 Q1013 NOSIG
Conditions at: LLBG (BEN-GURION(CIV/M, IL) observed 0220 UTC 21 April 2019
Temperature: 15.0°C (59°F)
Dewpoint: 6.0°C (43°F) [RH = 55%]
Pressure (altimeter): 29.91 inches Hg (1013.0 mb)
Winds: from the WSW (250 degrees) at 17 MPH (15 knots; 7.7 m/s)
Visibility: 6 or more miles (10+ km)
Ceiling: at least 12,000 feet AGL
Clouds: few clouds at 4000 feet AGL
Weather: no significant weather observed at this time

METAR text: LLBG 210150Z 26015G27KT 9999 SCT035 SCT050 15/06 Q1013 NOSIG
Conditions at: LLBG (BEN-GURION(CIV/M, IL) observed 0150 UTC 21 April 2019
Temperature: 15.0°C (59°F)
Dewpoint: 6.0°C (43°F) [RH = 55%]
Pressure (altimeter): 29.91 inches Hg (1013.0 mb)
Winds: from the W (260 degrees) at 17 MPH (15 knots; 7.7 m/s)
gusting to 31 MPH (27 knots; 13.9 m/s)
Visibility: 6 or more miles (10+ km)
Ceiling: at least 12,000 feet AGL
Clouds: scattered clouds at 3500 feet AGL
scattered clouds at 5000 feet AGL
Weather: no significant weather observed at this time

METAR text: LLBG 210120Z 26012KT 9999 SCT035 15/07 Q1013 NOSIG RMK SCT060
Conditions at: LLBG (BEN-GURION(CIV/M, IL) observed 0120 UTC 21 April 2019
Temperature: 15.0°C (59°F)
Dewpoint: 7.0°C (45°F) [RH = 59%]
Pressure (altimeter): 29.91 inches Hg (1013.0 mb)
Winds: from the W (260 degrees) at 14 MPH (12 knots; 6.2 m/s)
Visibility: 6 or more miles (10+ km)
Ceiling: at least 12,000 feet AGL
Clouds: scattered clouds at 3500 feet AGL
Weather: no significant weather observed at this time

METAR text: LLBG 210050Z 25013KT 9999 FEW030 SCT035 15/06 Q1013 NOSIG
Conditions at: LLBG (BEN-GURION(CIV/M, IL) observed 0050 UTC 21 April 2019
Temperature: 15.0°C (59°F)
Dewpoint: 6.0°C (43°F) [RH = 55%]
Pressure (altimeter): 29.91 inches Hg (1013.0 mb)
Winds: from the WSW (250 degrees) at 15 MPH (13 knots; 6.7 m/s)
Visibility: 6 or more miles (10+ km)
Ceiling: at least 12,000 feet AGL
Clouds: few clouds at 3000 feet AGL
scattered clouds at 3500 feet AGL
Weather: no significant weather observed at this time

METAR text: LLBG 210020Z 25011KT 9999 FEW030 SCT035 16/08 Q1013 NOSIG
Conditions at: LLBG (BEN-GURION(CIV/M, IL) observed 0020 UTC 21 April 2019
Temperature: 16.0°C (61°F)
Dewpoint: 8.0°C (46°F) [RH = 59%]
Pressure (altimeter): 29.91 inches Hg (1013.0 mb)
Winds: from the WSW (250 degrees) at 13 MPH (11 knots; 5.7 m/s)
Visibility: 6 or more miles (10+ km)
Ceiling: at least 12,000 feet AGL
Clouds: few clouds at 3000 feet AGL
scattered clouds at 3500 feet AGL
Weather: no significant weather observed at this time

METAR text: LLBG 202350Z 22008KT 9999 SCT030 SCT040 16/09 Q1013 NOSIG
Conditions at: LLBG (BEN-GURION(CIV/M, IL) observed 2350 UTC 20 April 2019
Temperature: 16.0°C (61°F)
Dewpoint: 9.0°C (48°F) [RH = 63%]
Pressure (altimeter): 29.91 inches Hg (1013.0 mb)
Winds: from the SW (220 degrees) at 9 MPH (8 knots; 4.1 m/s)
Visibility: 6 or more miles (10+ km)
Ceiling: at least 12,000 feet AGL
Clouds: scattered clouds at 3000 feet AGL
scattered clouds at 4000 feet AGL
Weather: no significant weather observed at this time

METAR text: LLBG 202320Z 24010KT 9999 SCT035 15/08 Q1014 NOSIG
Conditions at: LLBG (BEN-GURION(CIV/M, IL) observed 2320 UTC 20 April 2019
Temperature: 15.0°C (59°F)
Dewpoint: 8.0°C (46°F) [RH = 63%]
Pressure (altimeter): 29.94 inches Hg (1014.0 mb)
Winds: from the WSW (240 degrees) at 12 MPH (10 knots; 5.1 m/s)
Visibility: 6 or more miles (10+ km)
Ceiling: at least 12,000 feet AGL
Clouds: scattered clouds at 3500 feet AGL
Weather: no significant weather observed at this time

METAR text: LLBG 202250Z 24011KT 9999 SCT035 15/08 Q1014 NOSIG
Conditions at: LLBG (BEN-GURION(CIV/M, IL) observed 2250 UTC 20 April 2019
Temperature: 15.0°C (59°F)
Dewpoint: 8.0°C (46°F) [RH = 63%]
Pressure (altimeter): 29.94 inches Hg (1014.0 mb)
Winds: from the WSW (240 degrees) at 13 MPH (11 knots; 5.7 m/s)
Visibility: 6 or more miles (10+ km)
Ceiling: at least 12,000 feet AGL
Clouds: scattered clouds at 3500 feet AGL
Weather: no significant weather observed at this time

METAR text: LLBG 202220Z 22008KT 9999 FEW030 SCT035 16/09 Q1014 NOSIG
Conditions at: LLBG (BEN-GURION(CIV/M, IL) observed 2220 UTC 20 April 2019
Temperature: 16.0°C (61°F)
Dewpoint: 9.0°C (48°F) [RH = 63%]
Pressure (altimeter): 29.94 inches Hg (1014.0 mb)
Winds: from the SW (220 degrees) at 9 MPH (8 knots; 4.1 m/s)
Visibility: 6 or more miles (10+ km)
Ceiling: at least 12,000 feet AGL
Clouds: few clouds at 3000 feet AGL
scattered clouds at 3500 feet AGL
Weather: no significant weather observed at this time

METAR text: LLBG 202150Z 18008KT 9999 SCT030 SCT035 16/09 Q1015 NOSIG
Conditions at: LLBG (BEN-GURION(CIV/M, IL) observed 2150 UTC 20 April 2019
Temperature: 16.0°C (61°F)
Dewpoint: 9.0°C (48°F) [RH = 63%]
Pressure (altimeter): 29.97 inches Hg (1015.0 mb)
Winds: from the S (180 degrees) at 9 MPH (8 knots; 4.1 m/s)
Visibility: 6 or more miles (10+ km)
Ceiling: at least 12,000 feet AGL
Clouds: scattered clouds at 3000 feet AGL
scattered clouds at 3500 feet AGL
Weather: no significant weather observed at this time

METAR text: LLBG 202120Z 20008KT 9999 BKN035 16/08 Q1015 NOSIG
Conditions at: LLBG (BEN-GURION(CIV/M, IL) observed 2120 UTC 20 April 2019
Temperature: 16.0°C (61°F)
Dewpoint: 8.0°C (46°F) [RH = 59%]
Pressure (altimeter): 29.97 inches Hg (1015.0 mb)
Winds: from the SSW (200 degrees) at 9 MPH (8 knots; 4.1 m/s)
Visibility: 6 or more miles (10+ km)
Ceiling: 3500 feet AGL
Clouds: broken clouds at 3500 feet AGL
Weather: no significant weather observed at this time

METAR text: LLBG 202050Z 22008KT 9999 BKN035 16/08 Q1015 NOSIG
Conditions at: LLBG (BEN-GURION(CIV/M, IL) observed 2050 UTC 20 April 2019
Temperature: 16.0°C (61°F)
Dewpoint: 8.0°C (46°F) [RH = 59%]
Pressure (altimeter): 29.97 inches Hg (1015.0 mb)
Winds: from the SW (220 degrees) at 9 MPH (8 knots; 4.1 m/s)
Visibility: 6 or more miles (10+ km)
Ceiling: 3500 feet AGL
Clouds: broken clouds at 3500 feet AGL
Weather: no significant weather observed at this time

METAR text: LLBG 202020Z 22007KT 9999 FEW040 15/08 Q1016 NOSIG
Conditions at: LLBG (BEN-GURION(CIV/M, IL) observed 2020 UTC 20 April 2019
Temperature: 15.0°C (59°F)
Dewpoint: 8.0°C (46°F) [RH = 63%]
Pressure (altimeter): 30.00 inches Hg (1016.0 mb)
Winds: from the SW (220 degrees) at 8 MPH (7 knots; 3.6 m/s)
Visibility: 6 or more miles (10+ km)
Ceiling: at least 12,000 feet AGL
Clouds: few clouds at 4000 feet AGL
Weather: no significant weather observed at this time

METAR text: LLBG 201950Z 22006KT 9999 FEW030 16/07 Q1016 NOSIG
Conditions at: LLBG (BEN-GURION(CIV/M, IL) observed 1950 UTC 20 April 2019
Temperature: 16.0°C (61°F)
Dewpoint: 7.0°C (45°F) [RH = 55%]
Pressure (altimeter): 30.00 inches Hg (1016.0 mb)
Winds: from the SW (220 degrees) at 7 MPH (6 knots; 3.1 m/s)
Visibility: 6 or more miles (10+ km)
Ceiling: at least 12,000 feet AGL
Clouds: few clouds at 3000 feet AGL
Weather: no significant weather observed at this time

METAR text: LLBG 201920Z 22006KT 9999 SCT030 15/09 Q1016 NOSIG
Conditions at: LLBG (BEN-GURION(CIV/M, IL) observed 1920 UTC 20 April 2019
Temperature: 15.0°C (59°F)
Dewpoint: 9.0°C (48°F) [RH = 67%]
Pressure (altimeter): 30.00 inches Hg (1016.0 mb)
Winds: from the SW (220 degrees) at 7 MPH (6 knots; 3.1 m/s)
Visibility: 6 or more miles (10+ km)
Ceiling: at least 12,000 feet AGL
Clouds: scattered clouds at 3000 feet AGL
Weather: no significant weather observed at this time

METAR text: LLBG 201850Z 23007KT 9999 FEW030 16/09 Q1016 NOSIG
Conditions at: LLBG (BEN-GURION(CIV/M, IL) observed 1850 UTC 20 April 2019
Temperature: 16.0°C (61°F)
Dewpoint: 9.0°C (48°F) [RH = 63%]
Pressure (altimeter): 30.00 inches Hg (1016.0 mb)
Winds: from the SW (230 degrees) at 8 MPH (7 knots; 3.6 m/s)
Visibility: 6 or more miles (10+ km)
Ceiling: at least 12,000 feet AGL
Clouds: few clouds at 3000 feet AGL
Weather: no significant weather observed at this time

METAR text: LLBG 201820Z 23007KT 9999 SCT030 16/09 Q1016 NOSIG
Conditions at: LLBG (BEN-GURION(CIV/M, IL) observed 1820 UTC 20 April 2019
Temperature: 16.0°C (61°F)
Dewpoint: 9.0°C (48°F) [RH = 63%]
Pressure (altimeter): 30.00 inches Hg (1016.0 mb)
Winds: from the SW (230 degrees) at 8 MPH (7 knots; 3.6 m/s)
Visibility: 6 or more miles (10+ km)
Ceiling: at least 12,000 feet AGL
Clouds: scattered clouds at 3000 feet AGL
Weather: no significant weather observed at this time

METAR text: LLBG 201750Z 24010KT 9999 SCT030 16/09 Q1016 NOSIG
Conditions at: LLBG (BEN-GURION(CIV/M, IL) observed 1750 UTC 20 April 2019
Temperature: 16.0°C (61°F)
Dewpoint: 9.0°C (48°F) [RH = 63%]
Pressure (altimeter): 30.00 inches Hg (1016.0 mb)
Winds: from the WSW (240 degrees) at 12 MPH (10 knots; 5.1 m/s)
Visibility: 6 or more miles (10+ km)
Ceiling: at least 12,000 feet AGL
Clouds: scattered clouds at 3000 feet AGL
Weather: no significant weather observed at this time

METAR text: LLBG 201720Z 25009KT 9999 BKN030 16/10 Q1016 NOSIG
Conditions at: LLBG (BEN-GURION(CIV/M, IL) observed 1720 UTC 20 April 2019
Temperature: 16.0°C (61°F)
Dewpoint: 10.0°C (50°F) [RH = 68%]
Pressure (altimeter): 30.00 inches Hg (1016.0 mb)
Winds: from the WSW (250 degrees) at 10 MPH (9 knots; 4.6 m/s)
Visibility: 6 or more miles (10+ km)
Ceiling: 3000 feet AGL
Clouds: broken clouds at 3000 feet AGL
Weather: no significant weather observed at this time

METAR text: LLBG 201650Z 26010KT 9999 SCT028 17/09 Q1015 NOSIG
Conditions at: LLBG (BEN-GURION(CIV/M, IL) observed 1650 UTC 20 April 2019
Temperature: 17.0°C (63°F)
Dewpoint: 9.0°C (48°F) [RH = 59%]
Pressure (altimeter): 29.97 inches Hg (1015.0 mb)
Winds: from the W (260 degrees) at 12 MPH (10 knots; 5.1 m/s)
Visibility: 6 or more miles (10+ km)
Ceiling: at least 12,000 feet AGL
Clouds: scattered clouds at 2800 feet AGL
Weather: no significant weather observed at this time

METAR text: LLBG 201620Z 27010KT 9999 FEW028 17/10 Q1015 NOSIG
Conditions at: LLBG (BEN-GURION(CIV/M, IL) observed 1620 UTC 20 April 2019
Temperature: 17.0°C (63°F)
Dewpoint: 10.0°C (50°F) [RH = 63%]
Pressure (altimeter): 29.97 inches Hg (1015.0 mb)
Winds: from the W (270 degrees) at 12 MPH (10 knots; 5.1 m/s)
Visibility: 6 or more miles (10+ km)
Ceiling: at least 12,000 feet AGL
Clouds: few clouds at 2800 feet AGL
Weather: no significant weather observed at this time

METAR text: LLBG 201550Z 28014KT 9999 SCT028 17/10 Q1015 NOSIG
Conditions at: LLBG (BEN-GURION(CIV/M, IL) observed 1550 UTC 20 April 2019
Temperature: 17.0°C (63°F)
Dewpoint: 10.0°C (50°F) [RH = 63%]
Pressure (altimeter): 29.97 inches Hg (1015.0 mb)
Winds: from the W (280 degrees) at 16 MPH (14 knots; 7.2 m/s)
Visibility: 6 or more miles (10+ km)
Ceiling: at least 12,000 feet AGL
Clouds: scattered clouds at 2800 feet AGL
Weather: no significant weather observed at this time

METAR text: LLBG 201520Z 27014KT 9999 SCT028 18/10 Q1015 NOSIG
Conditions at: LLBG (BEN-GURION(CIV/M, IL) observed 1520 UTC 20 April 2019
Temperature: 18.0°C (64°F)
Dewpoint: 10.0°C (50°F) [RH = 59%]
Pressure (altimeter): 29.97 inches Hg (1015.0 mb)
Winds: from the W (270 degrees) at 16 MPH (14 knots; 7.2 m/s)
Visibility: 6 or more miles (10+ km)
Ceiling: at least 12,000 feet AGL
Clouds: scattered clouds at 2800 feet AGL
Weather: no significant weather observed at this time

METAR text: LLBG 201450Z 26014KT 9999 SCT030 18/10 Q1015 NOSIG
Conditions at: LLBG (BEN-GURION(CIV/M, IL) observed 1450 UTC 20 April 2019
Temperature: 18.0°C (64°F)
Dewpoint: 10.0°C (50°F) [RH = 59%]
Pressure (altimeter): 29.97 inches Hg (1015.0 mb)
Winds: from the W (260 degrees) at 16 MPH (14 knots; 7.2 m/s)
Visibility: 6 or more miles (10+ km)
Ceiling: at least 12,000 feet AGL
Clouds: scattered clouds at 3000 feet AGL
Weather: no significant weather observed at this time

METAR text: LLBG 201420Z 27015KT 9999 SCT030 18/09 Q1015 NOSIG
Conditions at: LLBG (BEN-GURION(CIV/M, IL) observed 1420 UTC 20 April 2019
Temperature: 18.0°C (64°F)
Dewpoint: 9.0°C (48°F) [RH = 56%]
Pressure (altimeter): 29.97 inches Hg (1015.0 mb)
Winds: from the W (270 degrees) at 17 MPH (15 knots; 7.7 m/s)
Visibility: 6 or more miles (10+ km)
Ceiling: at least 12,000 feet AGL
Clouds: scattered clouds at 3000 feet AGL
Weather: no significant weather observed at this time

Forecast for: LLBG (BEN-GURION(CIV/M, IL)
Text: TAF LLBG 212301Z 2200/2224 20005KT 9999 SCT035
Forecast period: 0000 to 0700 UTC 22 April 2019
Forecast type: FROM: standard forecast or significant change
Winds: from the SSW (200 degrees) at 6 MPH (5 knots; 2.6 m/s)
Visibility: 6 or more miles 10+ km)
Ceiling: at least 12,000 feet AGL
Clouds: scattered clouds at 3500 feet AGL
Weather: no significant weather forecast for this period
Text: PROB30 2201/2207 8000 -RA BKN030
Forecast period: 0100 to 0700 UTC 22 April 2019
Forecast type: PROBABLE: 30 percent likelihood of the following during this time
Visibility: 5 miles (8 km)
Ceiling: 3000 feet AGL
Clouds: broken clouds at 3000 feet AGL
Weather: -RA  (light rain)
Text: BECMG 2207/2209 26012KT
Forecast period: 0700 to 1600 UTC 22 April 2019
Forecast type: BECOMING: Conditions expected to become as follows by 0900 UTC 22 April 2019
Winds: from the W (260 degrees) at 14 MPH (12 knots; 6.2 m/s)
Visibility: 6 or more miles 10+ km)
Ceiling: at least 12,000 feet AGL
Clouds: scattered clouds at 3500 feet AGL
Weather: no significant weather forecast for this period
Text: BECMG 2216/2218 19004KT SCT025 TX19/2211Z TN12/2203Z
Forecast period: 1600 UTC 22 April 2019 to 0000 UTC 23 April 2019
Forecast type: BECOMING: Conditions expected to become as follows by 1800 UTC 22 April 2019
Winds: from the S (190 degrees) at 5 MPH (4 knots; 2.1 m/s)
Visibility: 6 or more miles 10+ km)
Ceiling: at least 12,000 feet AGL
Clouds: scattered clouds at 2500 feet AGL
Weather: no significant weather forecast for this period